sensor_id;sensor_type;location;lat;lon;timestamp;P1;durP1;ratioP1;P2;durP2;ratioP2
34080;SDS011;20358;50.272;19.026;2022-09-03T00:02:04;2.40;;;1.90;;
34080;SDS011;20358;50.272;19.026;2022-09-03T00:05:17;2.40;;;1.90;;
34080;SDS011;20358;50.272;19.026;2022-09-03T00:08:31;2.90;;;2.07;;
34080;SDS011;20358;50.272;19.026;2022-09-03T00:11:45;2.30;;;2.10;;
34080;SDS011;20358;50.272;19.026;2022-09-03T00:14:59;3.50;;;2.17;;
34080;SDS011;20358;50.272;19.026;2022-09-03T00:18:13;3.70;;;2.43;;
34080;SDS011;20358;50.272;19.026;2022-09-03T00:21:26;3.73;;;1.80;;
34080;SDS011;20358;50.272;19.026;2022-09-03T00:24:39;3.00;;;2.23;;
34080;SDS011;20358;50.272;19.026;2022-09-03T00:27:50;2.73;;;2.20;;
34080;SDS011;20358;50.272;19.026;2022-09-03T00:31:10;3.80;;;2.50;;
34080;SDS011;20358;50.272;19.026;2022-09-03T00:34:28;3.40;;;2.30;;
34080;SDS011;20358;50.272;19.026;2022-09-03T00:37:37;4.67;;;2.50;;
34080;SDS011;20358;50.272;19.026;2022-09-03T00:40:48;2.80;;;2.00;;
34080;SDS011;20358;50.272;19.026;2022-09-03T00:44:12;2.80;;;2.27;;
34080;SDS011;20358;50.272;19.026;2022-09-03T00:47:32;4.53;;;1.87;;
34080;SDS011;20358;50.272;19.026;2022-09-03T00:50:52;3.50;;;2.20;;
34080;SDS011;20358;50.272;19.026;2022-09-03T00:54:11;4.93;;;2.30;;
34080;SDS011;20358;50.272;19.026;2022-09-03T00:57:29;4.17;;;2.23;;
34080;SDS011;20358;50.272;19.026;2022-09-03T01:00:49;5.23;;;2.57;;
34080;SDS011;20358;50.272;19.026;2022-09-03T01:03:59;3.43;;;2.43;;
34080;SDS011;20358;50.272;19.026;2022-09-03T01:07:17;5.83;;;2.47;;
34080;SDS011;20358;50.272;19.026;2022-09-03T01:10:38;4.87;;;2.40;;
34080;SDS011;20358;50.272;19.026;2022-09-03T01:13:56;4.03;;;2.27;;
34080;SDS011;20358;50.272;19.026;2022-09-03T01:17:10;3.23;;;2.60;;
34080;SDS011;20358;50.272;19.026;2022-09-03T01:20:26;3.73;;;2.40;;
34080;SDS011;20358;50.272;19.026;2022-09-03T01:24:08;4.67;;;2.50;;
34080;SDS011;20358;50.272;19.026;2022-09-03T01:27:29;4.57;;;2.50;;
34080;SDS011;20358;50.272;19.026;2022-09-03T01:30:47;3.93;;;2.50;;
34080;SDS011;20358;50.272;19.026;2022-09-03T01:34:05;4.40;;;2.80;;
34080;SDS011;20358;50.272;19.026;2022-09-03T01:37:24;4.97;;;2.50;;
34080;SDS011;20358;50.272;19.026;2022-09-03T01:40:41;5.50;;;2.70;;
34080;SDS011;20358;50.272;19.026;2022-09-03T01:44:00;3.90;;;2.50;;
34080;SDS011;20358;50.272;19.026;2022-09-03T01:47:16;4.03;;;2.80;;
34080;SDS011;20358;50.272;19.026;2022-09-03T01:50:37;3.83;;;2.77;;
34080;SDS011;20358;50.272;19.026;2022-09-03T01:53:54;4.23;;;2.70;;
34080;SDS011;20358;50.272;19.026;2022-09-03T01:57:23;4.10;;;2.60;;
34080;SDS011;20358;50.272;19.026;2022-09-03T02:00:49;3.63;;;2.60;;
34080;SDS011;20358;50.272;19.026;2022-09-03T02:04:16;4.50;;;2.77;;
34080;SDS011;20358;50.272;19.026;2022-09-03T02:07:25;4.00;;;2.50;;
34080;SDS011;20358;50.272;19.026;2022-09-03T02:10:37;3.87;;;2.30;;
34080;SDS011;20358;50.272;19.026;2022-09-03T02:13:46;2.67;;;2.20;;
34080;SDS011;20358;50.272;19.026;2022-09-03T02:16:57;4.37;;;2.20;;
34080;SDS011;20358;50.272;19.026;2022-09-03T02:20:09;4.60;;;2.80;;
34080;SDS011;20358;50.272;19.026;2022-09-03T02:23:22;6.00;;;2.87;;
34080;SDS011;20358;50.272;19.026;2022-09-03T02:26:29;3.90;;;2.80;;
34080;SDS011;20358;50.272;19.026;2022-09-03T02:29:36;5.60;;;3.20;;
34080;SDS011;20358;50.272;19.026;2022-09-03T02:32:43;5.40;;;2.60;;
34080;SDS011;20358;50.272;19.026;2022-09-03T02:35:53;4.33;;;3.00;;
34080;SDS011;20358;50.272;19.026;2022-09-03T02:38:59;4.20;;;2.73;;
34080;SDS011;20358;50.272;19.026;2022-09-03T02:42:06;4.30;;;2.83;;
34080;SDS011;20358;50.272;19.026;2022-09-03T02:45:19;5.23;;;2.93;;
34080;SDS011;20358;50.272;19.026;2022-09-03T02:48:32;4.90;;;2.97;;
34080;SDS011;20358;50.272;19.026;2022-09-03T02:51:41;4.90;;;3.03;;
34080;SDS011;20358;50.272;19.026;2022-09-03T02:54:49;4.70;;;3.30;;
34080;SDS011;20358;50.272;19.026;2022-09-03T02:57:55;4.83;;;3.50;;
34080;SDS011;20358;50.272;19.026;2022-09-03T03:01:04;5.67;;;3.27;;
34080;SDS011;20358;50.272;19.026;2022-09-03T03:04:10;6.23;;;3.80;;
34080;SDS011;20358;50.272;19.026;2022-09-03T03:07:28;6.53;;;3.83;;
34080;SDS011;20358;50.272;19.026;2022-09-03T03:10:44;3.70;;;2.90;;
34080;SDS011;20358;50.272;19.026;2022-09-03T03:13:51;4.60;;;3.07;;
34080;SDS011;20358;50.272;19.026;2022-09-03T03:16:58;4.80;;;3.33;;
34080;SDS011;20358;50.272;19.026;2022-09-03T03:20:07;3.87;;;2.87;;
34080;SDS011;20358;50.272;19.026;2022-09-03T03:23:16;6.33;;;3.63;;
34080;SDS011;20358;50.272;19.026;2022-09-03T03:26:23;4.60;;;3.33;;
34080;SDS011;20358;50.272;19.026;2022-09-03T03:29:29;5.77;;;3.57;;
34080;SDS011;20358;50.272;19.026;2022-09-03T03:32:36;4.27;;;3.20;;
34080;SDS011;20358;50.272;19.026;2022-09-03T03:35:43;6.07;;;3.03;;
34080;SDS011;20358;50.272;19.026;2022-09-03T03:38:55;4.37;;;3.10;;
34080;SDS011;20358;50.272;19.026;2022-09-03T03:42:05;4.97;;;3.37;;
34080;SDS011;20358;50.272;19.026;2022-09-03T03:45:11;5.93;;;3.40;;
34080;SDS011;20358;50.272;19.026;2022-09-03T03:48:17;7.37;;;3.40;;
34080;SDS011;20358;50.272;19.026;2022-09-03T03:51:26;6.53;;;3.00;;
34080;SDS011;20358;50.272;19.026;2022-09-03T03:54:36;4.53;;;3.27;;
34080;SDS011;20358;50.272;19.026;2022-09-03T03:57:43;7.73;;;3.00;;
34080;SDS011;20358;50.272;19.026;2022-09-03T04:00:49;4.33;;;3.27;;
34080;SDS011;20358;50.272;19.026;2022-09-03T04:03:57;4.97;;;2.93;;
34080;SDS011;20358;50.272;19.026;2022-09-03T04:07:05;7.10;;;3.17;;
34080;SDS011;20358;50.272;19.026;2022-09-03T04:10:15;5.50;;;3.10;;
34080;SDS011;20358;50.272;19.026;2022-09-03T04:13:21;3.77;;;3.07;;
34080;SDS011;20358;50.272;19.026;2022-09-03T04:16:30;5.80;;;3.30;;
34080;SDS011;20358;50.272;19.026;2022-09-03T04:19:36;5.40;;;3.67;;
34080;SDS011;20358;50.272;19.026;2022-09-03T04:22:43;7.67;;;3.37;;
34080;SDS011;20358;50.272;19.026;2022-09-03T04:25:56;5.13;;;3.40;;
34080;SDS011;20358;50.272;19.026;2022-09-03T04:29:05;6.87;;;3.10;;
34080;SDS011;20358;50.272;19.026;2022-09-03T04:32:12;7.97;;;3.63;;
34080;SDS011;20358;50.272;19.026;2022-09-03T04:35:34;6.07;;;3.50;;
34080;SDS011;20358;50.272;19.026;2022-09-03T04:38:43;4.73;;;3.10;;
34080;SDS011;20358;50.272;19.026;2022-09-03T04:41:54;6.00;;;3.27;;
34080;SDS011;20358;50.272;19.026;2022-09-03T04:45:03;7.27;;;3.40;;
34080;SDS011;20358;50.272;19.026;2022-09-03T04:48:10;4.33;;;3.40;;
34080;SDS011;20358;50.272;19.026;2022-09-03T04:51:17;5.60;;;3.20;;
34080;SDS011;20358;50.272;19.026;2022-09-03T04:54:25;7.27;;;3.07;;
34080;SDS011;20358;50.272;19.026;2022-09-03T04:57:35;5.10;;;3.30;;
34080;SDS011;20358;50.272;19.026;2022-09-03T05:00:45;5.57;;;3.40;;
34080;SDS011;20358;50.272;19.026;2022-09-03T05:03:51;4.00;;;2.97;;
34080;SDS011;20358;50.272;19.026;2022-09-03T05:06:58;6.00;;;3.30;;
34080;SDS011;20358;50.272;19.026;2022-09-03T05:10:05;5.57;;;3.30;;
34080;SDS011;20358;50.272;19.026;2022-09-03T05:13:18;3.57;;;2.80;;
34080;SDS011;20358;50.272;19.026;2022-09-03T05:16:24;3.83;;;3.10;;
34080;SDS011;20358;50.272;19.026;2022-09-03T05:19:32;4.70;;;3.70;;
34080;SDS011;20358;50.272;19.026;2022-09-03T05:22:38;5.00;;;3.50;;
34080;SDS011;20358;50.272;19.026;2022-09-03T05:25:53;4.23;;;3.23;;
34080;SDS011;20358;50.272;19.026;2022-09-03T05:29:03;4.97;;;3.33;;
34080;SDS011;20358;50.272;19.026;2022-09-03T05:32:12;6.87;;;3.53;;
34080;SDS011;20358;50.272;19.026;2022-09-03T05:35:19;3.60;;;3.20;;
34080;SDS011;20358;50.272;19.026;2022-09-03T05:38:30;9.03;;;3.20;;
34080;SDS011;20358;50.272;19.026;2022-09-03T05:41:36;4.70;;;3.70;;
34080;SDS011;20358;50.272;19.026;2022-09-03T05:44:46;8.30;;;3.57;;
34080;SDS011;20358;50.272;19.026;2022-09-03T05:47:52;3.67;;;3.10;;
34080;SDS011;20358;50.272;19.026;2022-09-03T05:50:59;6.70;;;3.67;;
34080;SDS011;20358;50.272;19.026;2022-09-03T05:54:08;4.03;;;3.17;;
34080;SDS011;20358;50.272;19.026;2022-09-03T05:57:15;5.37;;;3.50;;
34080;SDS011;20358;50.272;19.026;2022-09-03T06:00:24;4.00;;;3.07;;
34080;SDS011;20358;50.272;19.026;2022-09-03T06:03:30;6.10;;;3.57;;
34080;SDS011;20358;50.272;19.026;2022-09-03T06:06:37;6.33;;;4.10;;
34080;SDS011;20358;50.272;19.026;2022-09-03T06:09:45;7.80;;;4.23;;
34080;SDS011;20358;50.272;19.026;2022-09-03T06:12:52;5.67;;;3.70;;
34080;SDS011;20358;50.272;19.026;2022-09-03T06:16:08;5.03;;;3.30;;
34080;SDS011;20358;50.272;19.026;2022-09-03T06:19:15;5.30;;;3.80;;
34080;SDS011;20358;50.272;19.026;2022-09-03T06:22:22;6.67;;;3.87;;
34080;SDS011;20358;50.272;19.026;2022-09-03T06:25:30;5.97;;;3.47;;
34080;SDS011;20358;50.272;19.026;2022-09-03T06:28:37;4.40;;;3.33;;
34080;SDS011;20358;50.272;19.026;2022-09-03T06:31:47;6.37;;;3.97;;
34080;SDS011;20358;50.272;19.026;2022-09-03T06:34:54;5.30;;;4.20;;
34080;SDS011;20358;50.272;19.026;2022-09-03T06:38:03;7.87;;;4.23;;
34080;SDS011;20358;50.272;19.026;2022-09-03T06:41:12;5.30;;;3.63;;
34080;SDS011;20358;50.272;19.026;2022-09-03T06:44:20;5.80;;;3.77;;
34080;SDS011;20358;50.272;19.026;2022-09-03T06:47:30;7.60;;;4.37;;
34080;SDS011;20358;50.272;19.026;2022-09-03T06:50:37;5.80;;;3.77;;
34080;SDS011;20358;50.272;19.026;2022-09-03T06:53:44;7.80;;;4.47;;
34080;SDS011;20358;50.272;19.026;2022-09-03T06:56:51;6.93;;;3.93;;
34080;SDS011;20358;50.272;19.026;2022-09-03T06:59:58;7.20;;;4.10;;
34080;SDS011;20358;50.272;19.026;2022-09-03T07:03:08;4.77;;;3.60;;
34080;SDS011;20358;50.272;19.026;2022-09-03T07:06:16;5.33;;;3.30;;
34080;SDS011;20358;50.272;19.026;2022-09-03T07:09:23;3.87;;;3.37;;
34080;SDS011;20358;50.272;19.026;2022-09-03T07:12:30;4.07;;;3.03;;
34080;SDS011;20358;50.272;19.026;2022-09-03T07:15:39;3.97;;;3.20;;
34080;SDS011;20358;50.272;19.026;2022-09-03T07:18:49;3.73;;;3.30;;
34080;SDS011;20358;50.272;19.026;2022-09-03T07:21:55;5.53;;;3.03;;
34080;SDS011;20358;50.272;19.026;2022-09-03T07:25:04;3.47;;;3.07;;
34080;SDS011;20358;50.272;19.026;2022-09-03T07:28:10;4.13;;;3.47;;
34080;SDS011;20358;50.272;19.026;2022-09-03T07:31:19;4.60;;;3.20;;
34080;SDS011;20358;50.272;19.026;2022-09-03T07:34:30;3.53;;;3.23;;
34080;SDS011;20358;50.272;19.026;2022-09-03T07:37:39;3.80;;;3.13;;
34080;SDS011;20358;50.272;19.026;2022-09-03T07:40:46;5.33;;;3.00;;
34080;SDS011;20358;50.272;19.026;2022-09-03T07:43:54;3.27;;;2.93;;
34080;SDS011;20358;50.272;19.026;2022-09-03T07:47:03;3.23;;;2.60;;
34080;SDS011;20358;50.272;19.026;2022-09-03T07:50:13;3.53;;;2.80;;
34080;SDS011;20358;50.272;19.026;2022-09-03T07:53:19;2.73;;;2.53;;
34080;SDS011;20358;50.272;19.026;2022-09-03T07:56:27;3.13;;;2.00;;
34080;SDS011;20358;50.272;19.026;2022-09-03T07:59:36;2.73;;;2.53;;
34080;SDS011;20358;50.272;19.026;2022-09-03T08:02:43;2.60;;;2.10;;
34080;SDS011;20358;50.272;19.026;2022-09-03T08:05:52;4.23;;;2.40;;
34080;SDS011;20358;50.272;19.026;2022-09-03T08:08:59;2.70;;;2.50;;
34080;SDS011;20358;50.272;19.026;2022-09-03T08:12:07;2.57;;;2.37;;
34080;SDS011;20358;50.272;19.026;2022-09-03T08:15:14;3.53;;;2.30;;
34080;SDS011;20358;50.272;19.026;2022-09-03T08:18:20;3.60;;;2.53;;
34080;SDS011;20358;50.272;19.026;2022-09-03T08:21:31;2.60;;;2.40;;
34080;SDS011;20358;50.272;19.026;2022-09-03T08:24:37;3.30;;;2.40;;
34080;SDS011;20358;50.272;19.026;2022-09-03T08:27:45;2.97;;;2.60;;
34080;SDS011;20358;50.272;19.026;2022-09-03T08:30:51;3.90;;;2.80;;
34080;SDS011;20358;50.272;19.026;2022-09-03T08:33:58;3.17;;;2.70;;
34080;SDS011;20358;50.272;19.026;2022-09-03T08:37:11;3.20;;;2.77;;
34080;SDS011;20358;50.272;19.026;2022-09-03T08:40:18;3.50;;;2.87;;
34080;SDS011;20358;50.272;19.026;2022-09-03T08:43:26;3.47;;;2.90;;
34080;SDS011;20358;50.272;19.026;2022-09-03T08:46:37;3.47;;;3.10;;
34080;SDS011;20358;50.272;19.026;2022-09-03T08:49:53;4.30;;;2.80;;
34080;SDS011;20358;50.272;19.026;2022-09-03T08:53:10;3.33;;;2.60;;
34080;SDS011;20358;50.272;19.026;2022-09-03T08:56:23;3.23;;;2.60;;
34080;SDS011;20358;50.272;19.026;2022-09-03T08:59:31;2.97;;;2.60;;
34080;SDS011;20358;50.272;19.026;2022-09-03T09:02:40;2.80;;;2.60;;
34080;SDS011;20358;50.272;19.026;2022-09-03T09:05:59;3.37;;;3.07;;
34080;SDS011;20358;50.272;19.026;2022-09-03T09:09:20;3.50;;;2.67;;
34080;SDS011;20358;50.272;19.026;2022-09-03T09:12:34;5.37;;;2.40;;
34080;SDS011;20358;50.272;19.026;2022-09-03T09:15:49;2.97;;;2.47;;
34080;SDS011;20358;50.272;19.026;2022-09-03T09:19:12;4.33;;;2.77;;
34080;SDS011;20358;50.272;19.026;2022-09-03T09:22:29;3.80;;;3.00;;
34080;SDS011;20358;50.272;19.026;2022-09-03T09:25:44;4.33;;;3.27;;
34080;SDS011;20358;50.272;19.026;2022-09-03T09:28:54;5.43;;;3.67;;
34080;SDS011;20358;50.272;19.026;2022-09-03T09:32:07;4.00;;;3.17;;
34080;SDS011;20358;50.272;19.026;2022-09-03T09:35:14;3.50;;;3.20;;
34080;SDS011;20358;50.272;19.026;2022-09-03T09:38:27;4.83;;;3.43;;
34080;SDS011;20358;50.272;19.026;2022-09-03T09:41:37;3.40;;;3.10;;
34080;SDS011;20358;50.272;19.026;2022-09-03T09:44:43;3.17;;;2.87;;
34080;SDS011;20358;50.272;19.026;2022-09-03T09:47:49;3.33;;;2.73;;
34080;SDS011;20358;50.272;19.026;2022-09-03T09:51:04;4.97;;;2.90;;
34080;SDS011;20358;50.272;19.026;2022-09-03T09:54:12;3.10;;;2.80;;
34080;SDS011;20358;50.272;19.026;2022-09-03T09:57:25;3.00;;;2.70;;
34080;SDS011;20358;50.272;19.026;2022-09-03T10:00:31;2.97;;;2.70;;
34080;SDS011;20358;50.272;19.026;2022-09-03T10:03:40;3.50;;;3.20;;
34080;SDS011;20358;50.272;19.026;2022-09-03T10:07:03;4.20;;;3.20;;
34080;SDS011;20358;50.272;19.026;2022-09-03T10:10:14;3.90;;;3.37;;
34080;SDS011;20358;50.272;19.026;2022-09-03T10:13:25;3.63;;;3.10;;
34080;SDS011;20358;50.272;19.026;2022-09-03T10:16:40;4.73;;;3.13;;
34080;SDS011;20358;50.272;19.026;2022-09-03T10:19:54;3.13;;;2.50;;
34080;SDS011;20358;50.272;19.026;2022-09-03T10:23:22;4.00;;;2.73;;
34080;SDS011;20358;50.272;19.026;2022-09-03T10:26:30;3.27;;;2.77;;
34080;SDS011;20358;50.272;19.026;2022-09-03T10:29:40;4.53;;;3.30;;
34080;SDS011;20358;50.272;19.026;2022-09-03T10:32:47;3.40;;;3.00;;
34080;SDS011;20358;50.272;19.026;2022-09-03T10:36:10;4.53;;;3.10;;
34080;SDS011;20358;50.272;19.026;2022-09-03T10:39:24;3.30;;;3.00;;
34080;SDS011;20358;50.272;19.026;2022-09-03T10:42:47;6.63;;;2.83;;
34080;SDS011;20358;50.272;19.026;2022-09-03T10:46:09;3.10;;;2.67;;
34080;SDS011;20358;50.272;19.026;2022-09-03T10:49:28;3.10;;;2.80;;
34080;SDS011;20358;50.272;19.026;2022-09-03T10:52:52;2.63;;;2.30;;
34080;SDS011;20358;50.272;19.026;2022-09-03T10:56:12;3.40;;;3.10;;
34080;SDS011;20358;50.272;19.026;2022-09-03T10:59:31;3.80;;;2.43;;
34080;SDS011;20358;50.272;19.026;2022-09-03T11:03:10;3.95;;;2.83;;
34080;SDS011;20358;50.272;19.026;2022-09-03T11:06:40;2.88;;;2.58;;
34080;SDS011;20358;50.272;19.026;2022-09-03T11:09:55;3.65;;;2.67;;
34080;SDS011;20358;50.272;19.026;2022-09-03T11:13:08;3.90;;;2.58;;
34080;SDS011;20358;50.272;19.026;2022-09-03T11:16:19;3.65;;;2.63;;
34080;SDS011;20358;50.272;19.026;2022-09-03T11:19:35;2.53;;;2.33;;
34080;SDS011;20358;50.272;19.026;2022-09-03T11:22:49;3.97;;;2.70;;
34080;SDS011;20358;50.272;19.026;2022-09-03T11:25:59;2.60;;;2.40;;
34080;SDS011;20358;50.272;19.026;2022-09-03T11:29:11;4.05;;;2.85;;
34080;SDS011;20358;50.272;19.026;2022-09-03T11:32:23;3.05;;;2.72;;
34080;SDS011;20358;50.272;19.026;2022-09-03T11:35:41;2.67;;;2.47;;
34080;SDS011;20358;50.272;19.026;2022-09-03T11:38:47;3.20;;;2.90;;
34080;SDS011;20358;50.272;19.026;2022-09-03T11:41:57;3.22;;;2.92;;
34080;SDS011;20358;50.272;19.026;2022-09-03T11:45:13;2.92;;;2.72;;
34080;SDS011;20358;50.272;19.026;2022-09-03T11:48:32;3.13;;;2.78;;
34080;SDS011;20358;50.272;19.026;2022-09-03T11:51:54;3.35;;;2.75;;
34080;SDS011;20358;50.272;19.026;2022-09-03T11:55:05;4.70;;;2.70;;
34080;SDS011;20358;50.272;19.026;2022-09-03T11:58:16;3.20;;;3.00;;
34080;SDS011;20358;50.272;19.026;2022-09-03T12:01:29;4.55;;;3.22;;
34080;SDS011;20358;50.272;19.026;2022-09-03T12:04:39;3.70;;;3.10;;
34080;SDS011;20358;50.272;19.026;2022-09-03T12:11:37;3.28;;;2.97;;
34080;SDS011;20358;50.272;19.026;2022-09-03T12:14:55;3.08;;;2.78;;
34080;SDS011;20358;50.272;19.026;2022-09-03T12:18:10;3.97;;;3.58;;
34080;SDS011;20358;50.272;19.026;2022-09-03T12:21:27;4.38;;;3.35;;
34080;SDS011;20358;50.272;19.026;2022-09-03T12:24:37;3.95;;;3.55;;
34080;SDS011;20358;50.272;19.026;2022-09-03T12:27:46;4.15;;;3.33;;
34080;SDS011;20358;50.272;19.026;2022-09-03T12:30:52;3.22;;;2.92;;
34080;SDS011;20358;50.272;19.026;2022-09-03T12:34:09;4.93;;;3.30;;
34080;SDS011;20358;50.272;19.026;2022-09-03T12:37:19;4.07;;;3.00;;
34080;SDS011;20358;50.272;19.026;2022-09-03T12:40:51;3.72;;;3.22;;
34080;SDS011;20358;50.272;19.026;2022-09-03T12:44:23;5.10;;;3.77;;
34080;SDS011;20358;50.272;19.026;2022-09-03T12:47:36;3.80;;;3.37;;
34080;SDS011;20358;50.272;19.026;2022-09-03T12:50:45;4.70;;;3.00;;
34080;SDS011;20358;50.272;19.026;2022-09-03T12:53:58;3.70;;;3.10;;
34080;SDS011;20358;50.272;19.026;2022-09-03T12:57:08;3.58;;;3.22;;
34080;SDS011;20358;50.272;19.026;2022-09-03T13:00:15;3.20;;;3.00;;
34080;SDS011;20358;50.272;19.026;2022-09-03T13:03:23;5.33;;;3.10;;
34080;SDS011;20358;50.272;19.026;2022-09-03T13:06:40;3.50;;;3.20;;
34080;SDS011;20358;50.272;19.026;2022-09-03T13:09:57;3.43;;;3.13;;
34080;SDS011;20358;50.272;19.026;2022-09-03T13:13:19;4.07;;;2.90;;
34080;SDS011;20358;50.272;19.026;2022-09-03T13:20:11;3.42;;;3.13;;
34080;SDS011;20358;50.272;19.026;2022-09-03T13:27:14;4.22;;;3.10;;
34080;SDS011;20358;50.272;19.026;2022-09-03T13:30:31;3.10;;;2.80;;
34080;SDS011;20358;50.272;19.026;2022-09-03T13:33:44;3.25;;;2.95;;
34080;SDS011;20358;50.272;19.026;2022-09-03T13:36:57;2.97;;;2.67;;
34080;SDS011;20358;50.272;19.026;2022-09-03T13:40:16;4.90;;;3.47;;
34080;SDS011;20358;50.272;19.026;2022-09-03T13:43:29;3.83;;;3.20;;
34080;SDS011;20358;50.272;19.026;2022-09-03T13:46:45;3.55;;;3.25;;
34080;SDS011;20358;50.272;19.026;2022-09-03T13:49:57;3.40;;;3.10;;
34080;SDS011;20358;50.272;19.026;2022-09-03T13:53:29;3.35;;;2.83;;
34080;SDS011;20358;50.272;19.026;2022-09-03T13:56:49;3.05;;;2.85;;
34080;SDS011;20358;50.272;19.026;2022-09-03T14:00:05;3.65;;;2.92;;
34080;SDS011;20358;50.272;19.026;2022-09-03T14:03:22;7.20;;;3.30;;
34080;SDS011;20358;50.272;19.026;2022-09-03T14:06:38;3.15;;;2.78;;
34080;SDS011;20358;50.272;19.026;2022-09-03T14:09:50;3.90;;;3.17;;
34080;SDS011;20358;50.272;19.026;2022-09-03T14:13:09;4.55;;;3.10;;
34080;SDS011;20358;50.272;19.026;2022-09-03T14:16:23;3.00;;;2.80;;
34080;SDS011;20358;50.272;19.026;2022-09-03T14:19:40;3.20;;;2.90;;
34080;SDS011;20358;50.272;19.026;2022-09-03T14:22:52;3.97;;;3.58;;
34080;SDS011;20358;50.272;19.026;2022-09-03T14:26:13;4.45;;;2.83;;
34080;SDS011;20358;50.272;19.026;2022-09-03T14:29:48;4.30;;;3.20;;
34080;SDS011;20358;50.272;19.026;2022-09-03T14:32:58;3.30;;;3.00;;
34080;SDS011;20358;50.272;19.026;2022-09-03T14:36:17;3.33;;;3.03;;
34080;SDS011;20358;50.272;19.026;2022-09-03T14:39:32;3.25;;;2.95;;
34080;SDS011;20358;50.272;19.026;2022-09-03T14:43:00;3.80;;;3.50;;
34080;SDS011;20358;50.272;19.026;2022-09-03T14:46:31;5.22;;;3.65;;
34080;SDS011;20358;50.272;19.026;2022-09-03T14:50:03;4.30;;;3.27;;
34080;SDS011;20358;50.272;19.026;2022-09-03T14:53:34;3.63;;;2.83;;
34080;SDS011;20358;50.272;19.026;2022-09-03T14:56:59;3.30;;;3.00;;
34080;SDS011;20358;50.272;19.026;2022-09-03T15:00:16;3.50;;;3.20;;
34080;SDS011;20358;50.272;19.026;2022-09-03T15:03:35;5.15;;;2.83;;
34080;SDS011;20358;50.272;19.026;2022-09-03T15:07:01;3.45;;;3.15;;
34080;SDS011;20358;50.272;19.026;2022-09-03T15:10:26;3.35;;;3.05;;
34080;SDS011;20358;50.272;19.026;2022-09-03T15:13:44;4.40;;;3.33;;
34080;SDS011;20358;50.272;19.026;2022-09-03T15:16:55;3.40;;;2.88;;
34080;SDS011;20358;50.272;19.026;2022-09-03T15:20:15;5.22;;;2.50;;
34080;SDS011;20358;50.272;19.026;2022-09-03T15:23:42;3.10;;;2.80;;
34080;SDS011;20358;50.272;19.026;2022-09-03T15:27:04;3.95;;;2.95;;
34080;SDS011;20358;50.272;19.026;2022-09-03T15:30:22;3.85;;;3.05;;
34080;SDS011;20358;50.272;19.026;2022-09-03T15:33:29;3.70;;;3.40;;
34080;SDS011;20358;50.272;19.026;2022-09-03T15:36:41;3.85;;;3.40;;
34080;SDS011;20358;50.272;19.026;2022-09-03T15:39:56;4.88;;;3.17;;
34080;SDS011;20358;50.272;19.026;2022-09-03T15:43:17;4.20;;;3.15;;
34080;SDS011;20358;50.272;19.026;2022-09-03T15:46:44;4.25;;;2.75;;
34080;SDS011;20358;50.272;19.026;2022-09-03T15:49:57;3.43;;;3.13;;
34080;SDS011;20358;50.272;19.026;2022-09-03T15:53:13;3.93;;;3.20;;
34080;SDS011;20358;50.272;19.026;2022-09-03T15:56:27;3.50;;;3.20;;
34080;SDS011;20358;50.272;19.026;2022-09-03T15:59:45;4.53;;;3.83;;
34080;SDS011;20358;50.272;19.026;2022-09-03T16:02:58;3.85;;;3.50;;
34080;SDS011;20358;50.272;19.026;2022-09-03T16:06:17;4.57;;;3.22;;
34080;SDS011;20358;50.272;19.026;2022-09-03T16:09:45;3.65;;;3.10;;
34080;SDS011;20358;50.272;19.026;2022-09-03T16:13:29;4.15;;;3.20;;
34080;SDS011;20358;50.272;19.026;2022-09-03T16:16:49;3.60;;;3.28;;
34080;SDS011;20358;50.272;19.026;2022-09-03T16:20:05;3.25;;;2.65;;
34080;SDS011;20358;50.272;19.026;2022-09-03T16:23:20;3.72;;;3.42;;
34080;SDS011;20358;50.272;19.026;2022-09-03T16:26:34;3.50;;;3.17;;
34080;SDS011;20358;50.272;19.026;2022-09-03T16:29:53;3.80;;;3.50;;
34080;SDS011;20358;50.272;19.026;2022-09-03T16:33:08;12.93;;;4.10;;
34080;SDS011;20358;50.272;19.026;2022-09-03T16:36:29;3.90;;;3.60;;
34080;SDS011;20358;50.272;19.026;2022-09-03T16:39:47;4.03;;;3.40;;
34080;SDS011;20358;50.272;19.026;2022-09-03T16:43:00;4.47;;;3.50;;
34080;SDS011;20358;50.272;19.026;2022-09-03T16:46:35;3.85;;;3.55;;
34080;SDS011;20358;50.272;19.026;2022-09-03T16:49:52;5.63;;;3.77;;
34080;SDS011;20358;50.272;19.026;2022-09-03T16:53:12;5.23;;;4.67;;
34080;SDS011;20358;50.272;19.026;2022-09-03T16:56:26;3.73;;;3.43;;
34080;SDS011;20358;50.272;19.026;2022-09-03T16:59:53;3.93;;;3.50;;
34080;SDS011;20358;50.272;19.026;2022-09-03T17:03:20;4.93;;;3.77;;
34080;SDS011;20358;50.272;19.026;2022-09-03T17:06:50;4.20;;;3.80;;
34080;SDS011;20358;50.272;19.026;2022-09-03T17:10:12;4.20;;;3.80;;
34080;SDS011;20358;50.272;19.026;2022-09-03T17:13:32;4.67;;;4.20;;
34080;SDS011;20358;50.272;19.026;2022-09-03T17:16:51;5.20;;;4.70;;
34080;SDS011;20358;50.272;19.026;2022-09-03T17:20:12;5.53;;;4.70;;
34080;SDS011;20358;50.272;19.026;2022-09-03T17:23:36;5.70;;;4.17;;
34080;SDS011;20358;50.272;19.026;2022-09-03T17:30:54;4.87;;;4.33;;
34080;SDS011;20358;50.272;19.026;2022-09-03T17:34:05;5.20;;;4.53;;
34080;SDS011;20358;50.272;19.026;2022-09-03T17:37:21;7.23;;;4.57;;
34080;SDS011;20358;50.272;19.026;2022-09-03T17:40:44;5.87;;;4.70;;
34080;SDS011;20358;50.272;19.026;2022-09-03T17:44:03;7.27;;;4.80;;
34080;SDS011;20358;50.272;19.026;2022-09-03T17:51:14;7.27;;;5.97;;
34080;SDS011;20358;50.272;19.026;2022-09-03T17:54:34;6.53;;;5.60;;
34080;SDS011;20358;50.272;19.026;2022-09-03T17:57:49;6.83;;;5.57;;
34080;SDS011;20358;50.272;19.026;2022-09-03T18:01:01;6.17;;;5.57;;
34080;SDS011;20358;50.272;19.026;2022-09-03T18:04:17;6.10;;;5.30;;
34080;SDS011;20358;50.272;19.026;2022-09-03T18:07:46;6.53;;;5.53;;
34080;SDS011;20358;50.272;19.026;2022-09-03T18:10:59;5.27;;;4.77;;
34080;SDS011;20358;50.272;19.026;2022-09-03T18:14:19;5.40;;;4.70;;
34080;SDS011;20358;50.272;19.026;2022-09-03T18:17:30;6.90;;;5.57;;
34080;SDS011;20358;50.272;19.026;2022-09-03T18:20:44;6.63;;;5.10;;
34080;SDS011;20358;50.272;19.026;2022-09-03T18:24:28;6.20;;;5.60;;
34080;SDS011;20358;50.272;19.026;2022-09-03T18:27:55;5.93;;;4.87;;
34080;SDS011;20358;50.272;19.026;2022-09-03T18:31:23;6.87;;;4.67;;
34080;SDS011;20358;50.272;19.026;2022-09-03T18:34:45;5.43;;;4.93;;
34080;SDS011;20358;50.272;19.026;2022-09-03T18:38:07;6.43;;;5.67;;
34080;SDS011;20358;50.272;19.026;2022-09-03T18:41:38;6.30;;;5.30;;
34080;SDS011;20358;50.272;19.026;2022-09-03T18:45:09;6.03;;;5.00;;
34080;SDS011;20358;50.272;19.026;2022-09-03T18:49:07;5.83;;;5.23;;
34080;SDS011;20358;50.272;19.026;2022-09-03T18:52:37;6.33;;;5.47;;
34080;SDS011;20358;50.272;19.026;2022-09-03T18:56:11;6.00;;;5.27;;
34080;SDS011;20358;50.272;19.026;2022-09-03T18:59:47;7.00;;;5.80;;
34080;SDS011;20358;50.272;19.026;2022-09-03T19:03:23;7.83;;;5.40;;
34080;SDS011;20358;50.272;19.026;2022-09-03T19:06:57;6.60;;;5.37;;
34080;SDS011;20358;50.272;19.026;2022-09-03T19:10:27;7.47;;;5.33;;
34080;SDS011;20358;50.272;19.026;2022-09-03T19:14:04;6.23;;;5.63;;
34080;SDS011;20358;50.272;19.026;2022-09-03T19:17:37;6.23;;;5.63;;
34080;SDS011;20358;50.272;19.026;2022-09-03T19:21:16;7.27;;;6.33;;
34080;SDS011;20358;50.272;19.026;2022-09-03T19:24:53;10.13;;;6.73;;
34080;SDS011;20358;50.272;19.026;2022-09-03T19:28:20;6.70;;;6.00;;
34080;SDS011;20358;50.272;19.026;2022-09-03T19:31:44;6.93;;;5.80;;
34080;SDS011;20358;50.272;19.026;2022-09-03T19:35:11;6.53;;;5.87;;